createdAt,value
2023-05-18T00:02:16.192Z,17.47
2023-05-18T00:04:44.176Z,17.44
2023-05-18T00:07:13.194Z,17.40
2023-05-18T00:09:41.490Z,17.37
2023-05-18T00:12:10.055Z,17.35
2023-05-18T00:14:37.716Z,17.30
2023-05-18T00:17:05.308Z,17.29
2023-05-18T00:19:33.364Z,17.28
2023-05-18T00:22:02.310Z,17.26
2023-05-18T00:24:30.078Z,17.26
2023-05-18T00:26:57.546Z,17.24
2023-05-18T00:29:24.974Z,17.21
2023-05-18T00:31:52.468Z,17.17
2023-05-18T00:34:20.053Z,17.15
2023-05-18T00:36:47.446Z,17.13
2023-05-18T00:39:14.883Z,17.12
2023-05-18T00:41:42.260Z,17.10
2023-05-18T00:44:09.810Z,17.07
2023-05-18T00:46:37.490Z,17.04
2023-05-18T00:49:04.948Z,16.99
2023-05-18T00:51:32.829Z,16.96
2023-05-18T00:54:00.666Z,16.93
2023-05-18T00:56:28.708Z,16.91
2023-05-18T00:58:57.278Z,16.90
2023-05-18T01:01:28.852Z,16.88
2023-05-18T01:03:57.781Z,16.83
2023-05-18T01:06:25.714Z,16.77
2023-05-18T01:08:54.023Z,16.72
2023-05-18T01:11:51.071Z,16.66
2023-05-18T01:15:03.868Z,16.63
2023-05-18T01:18:05.356Z,16.62
2023-05-18T01:20:46.559Z,16.63
2023-05-18T01:23:52.964Z,16.61
2023-05-18T01:26:37.884Z,16.61
2023-05-18T01:29:07.554Z,16.61
2023-05-18T01:31:36.707Z,16.60
2023-05-18T01:34:04.219Z,16.58
2023-05-18T01:36:32.744Z,16.57
2023-05-18T01:39:01.946Z,16.56
2023-05-18T01:41:30.494Z,16.54
2023-05-18T01:44:22.195Z,16.51
2023-05-18T01:47:12.685Z,16.46
2023-05-18T01:49:51.747Z,16.46
2023-05-18T01:52:21.478Z,16.44
2023-05-18T01:54:51.259Z,16.44
2023-05-18T01:57:18.954Z,16.41
2023-05-18T01:59:46.349Z,16.41
2023-05-18T02:02:13.953Z,16.38
2023-05-18T02:04:41.572Z,16.36
2023-05-18T02:07:09.188Z,16.33
2023-05-18T02:09:36.643Z,16.32
2023-05-18T02:12:04.377Z,16.30
2023-05-18T02:14:33.799Z,16.28
2023-05-18T02:17:01.904Z,16.28
2023-05-18T02:19:31.112Z,16.25
2023-05-18T02:21:58.798Z,16.25
2023-05-18T02:24:26.612Z,16.24
2023-05-18T02:26:54.176Z,16.22
2023-05-18T02:29:21.696Z,16.19
2023-05-18T02:31:49.237Z,16.15
2023-05-18T02:34:17.273Z,16.11
2023-05-18T02:36:46.218Z,16.08
2023-05-18T02:39:13.817Z,16.04
2023-05-18T02:41:41.352Z,16.03
2023-05-18T02:44:08.948Z,16.01
2023-05-18T02:46:36.611Z,16.00
2023-05-18T02:49:06.407Z,15.99
2023-05-18T02:51:34.471Z,16.00
2023-05-18T02:54:02.619Z,16.00
2023-05-18T02:56:32.912Z,16.00
2023-05-18T02:59:23.069Z,16.01
2023-05-18T03:01:50.971Z,16.03
2023-05-18T03:04:18.490Z,16.03
2023-05-18T03:06:53.126Z,16.04
2023-05-18T03:09:23.129Z,16.04
2023-05-18T03:11:53.553Z,16.05
2023-05-18T03:14:21.239Z,16.07
2023-05-18T03:16:53.815Z,16.10
2023-05-18T03:19:22.522Z,16.11
2023-05-18T03:21:50.346Z,16.14
2023-05-18T03:24:17.911Z,16.16
2023-05-18T03:26:48.727Z,16.17
2023-05-18T03:29:16.571Z,16.18
2023-05-18T03:31:44.487Z,16.18
2023-05-18T03:34:13.642Z,16.21
2023-05-18T03:36:42.555Z,16.21
2023-05-18T03:39:11.170Z,16.23
2023-05-18T03:41:38.860Z,16.25
2023-05-18T03:44:06.307Z,16.26
2023-05-18T03:46:34.065Z,16.28
2023-05-18T03:49:03.483Z,16.29
2023-05-18T03:51:37.340Z,16.31
2023-05-18T03:54:05.094Z,16.33
2023-05-18T03:56:33.031Z,16.35
2023-05-18T03:59:00.738Z,16.37
2023-05-18T04:01:32.790Z,16.40
2023-05-18T04:04:00.846Z,16.43
2023-05-18T04:06:28.564Z,16.45
2023-05-18T04:08:56.326Z,16.49
2023-05-18T04:11:26.128Z,16.52
2023-05-18T04:13:53.624Z,16.57
2023-05-18T04:16:22.099Z,16.62
2023-05-18T04:18:50.125Z,16.67
2023-05-18T04:21:19.444Z,16.72
2023-05-18T04:23:47.353Z,16.76
2023-05-18T04:26:20.035Z,16.83
2023-05-18T04:28:47.743Z,16.88
2023-05-18T04:31:17.905Z,16.96
2023-05-18T04:33:47.414Z,17.04
2023-05-18T04:36:15.173Z,17.12
2023-05-18T04:38:43.006Z,17.19
2023-05-18T04:41:10.624Z,17.20
2023-05-18T04:43:38.672Z,17.25
2023-05-18T04:46:07.441Z,17.31
2023-05-18T04:48:36.461Z,17.36
2023-05-18T04:51:05.036Z,17.41
2023-05-18T04:53:38.890Z,17.49
2023-05-18T04:56:07.183Z,17.56
2023-05-18T04:58:35.764Z,17.61
2023-05-18T05:01:03.438Z,17.68
2023-05-18T05:03:31.463Z,17.75
2023-05-18T05:05:59.434Z,17.84
2023-05-18T05:08:27.084Z,17.89
2023-05-18T05:10:54.654Z,17.95
2023-05-18T05:13:22.694Z,18.03
2023-05-18T05:15:51.377Z,18.09
2023-05-18T05:18:20.268Z,18.17
2023-05-18T05:20:50.171Z,18.26
2023-05-18T05:23:18.288Z,18.33
2023-05-18T05:25:46.747Z,18.40
2023-05-18T05:28:14.482Z,18.49
2023-05-18T05:30:42.990Z,18.57
2023-05-18T05:33:10.800Z,18.64
2023-05-18T05:35:39.347Z,18.71
2023-05-18T05:38:07.664Z,18.80
2023-05-18T05:40:36.111Z,18.90
2023-05-18T05:43:05.978Z,19.00
2023-05-18T05:45:33.992Z,19.08
2023-05-18T05:48:05.004Z,19.17
2023-05-18T05:50:32.694Z,19.24
2023-05-18T05:53:02.410Z,19.31
2023-05-18T05:55:41.218Z,19.40
2023-05-18T05:58:12.758Z,19.49
2023-05-18T06:00:43.281Z,19.58
2023-05-18T06:03:11.108Z,19.67
2023-05-18T06:05:42.618Z,19.76
2023-05-18T06:08:12.254Z,19.86
2023-05-18T06:10:41.244Z,19.94
2023-05-18T06:13:09.316Z,20.04
2023-05-18T06:15:45.677Z,20.12
2023-05-18T06:18:13.851Z,20.21
2023-05-18T06:20:41.811Z,20.29
2023-05-18T06:23:09.520Z,20.34
2023-05-18T06:25:49.885Z,20.39
2023-05-18T06:28:27.981Z,20.45
2023-05-18T06:31:15.953Z,20.56
2023-05-18T06:33:50.838Z,20.62
2023-05-18T06:36:18.588Z,20.69
2023-05-18T06:38:46.448Z,20.76
2023-05-18T06:41:14.050Z,20.83
2023-05-18T06:43:41.527Z,20.91
2023-05-18T06:46:26.652Z,21.01
2023-05-18T06:49:01.392Z,21.11
2023-05-18T06:51:29.408Z,21.22
2023-05-18T06:53:57.837Z,21.31
2023-05-18T06:56:26.624Z,21.41
2023-05-18T06:58:55.399Z,21.46
2023-05-18T07:01:23.986Z,21.53
2023-05-18T07:03:52.298Z,21.62
2023-05-18T07:06:20.035Z,21.71
2023-05-18T07:08:48.058Z,21.80
2023-05-18T07:11:15.960Z,21.88
2023-05-18T07:13:43.507Z,21.96
2023-05-18T07:16:11.618Z,22.02
2023-05-18T07:18:39.488Z,22.08
2023-05-18T07:21:07.088Z,22.18
2023-05-18T07:23:34.775Z,22.28
2023-05-18T07:26:02.350Z,22.38
2023-05-18T07:28:30.165Z,22.45
2023-05-18T07:30:57.845Z,22.55
2023-05-18T07:33:25.605Z,22.61
2023-05-18T07:35:53.224Z,22.71
2023-05-18T07:38:20.744Z,22.81
2023-05-18T07:40:48.394Z,22.90
2023-05-18T07:43:16.664Z,22.98
2023-05-18T07:45:44.218Z,23.07
2023-05-18T07:48:11.962Z,23.16
2023-05-18T07:50:40.256Z,23.24
2023-05-18T07:53:07.786Z,23.35
2023-05-18T07:55:35.456Z,23.49
2023-05-18T07:58:02.958Z,23.60
2023-05-18T08:00:31.264Z,23.73
2023-05-18T08:03:00.808Z,23.83
2023-05-18T08:05:28.713Z,23.90
2023-05-18T08:07:56.509Z,23.97
2023-05-18T08:10:24.452Z,24.06
2023-05-18T08:12:52.883Z,24.11
2023-05-18T08:15:20.387Z,24.20
2023-05-18T08:17:48.069Z,24.32
2023-05-18T08:20:17.293Z,24.47
2023-05-18T08:22:44.995Z,24.55
2023-05-18T08:25:12.984Z,24.59
2023-05-18T08:27:40.806Z,24.68
2023-05-18T08:30:08.943Z,24.72
2023-05-18T08:32:37.530Z,24.72
2023-05-18T08:35:06.078Z,24.71
2023-05-18T08:37:34.634Z,24.67
2023-05-18T08:40:02.560Z,24.72
2023-05-18T08:42:48.650Z,24.77
2023-05-18T08:45:24.617Z,24.73
2023-05-18T08:47:52.304Z,24.67
2023-05-18T08:50:24.107Z,24.73
2023-05-18T08:52:54.679Z,24.76
2023-05-18T08:55:23.456Z,24.90
2023-05-18T08:57:56.284Z,25.00
2023-05-18T09:00:24.743Z,25.08
2023-05-18T09:02:52.876Z,25.11
2023-05-18T09:05:21.374Z,25.15
2023-05-18T09:07:50.852Z,25.27
2023-05-18T09:10:19.079Z,25.44
2023-05-18T09:12:47.137Z,25.55
2023-05-18T09:15:15.934Z,25.63
2023-05-18T09:17:44.257Z,25.73
2023-05-18T09:20:12.308Z,25.89
2023-05-18T09:22:40.711Z,26.01
2023-05-18T09:25:09.022Z,26.11
2023-05-18T09:27:37.490Z,26.20
2023-05-18T09:30:06.083Z,26.34
2023-05-18T09:32:34.882Z,26.39
2023-05-18T09:35:06.820Z,26.43
2023-05-18T09:37:34.677Z,26.47
2023-05-18T09:40:09.091Z,26.57
2023-05-18T09:42:43.525Z,26.68
2023-05-18T09:45:23.797Z,26.78
2023-05-18T09:47:51.676Z,26.87
2023-05-18T09:50:21.025Z,26.97
2023-05-18T09:52:49.475Z,27.09
2023-05-18T09:55:20.529Z,27.21
2023-05-18T09:57:49.680Z,27.29
2023-05-18T10:00:19.362Z,27.21
2023-05-18T10:02:49.344Z,27.09
2023-05-18T10:05:23.471Z,26.97
2023-05-18T10:07:51.414Z,26.81
2023-05-18T10:10:20.548Z,26.85
2023-05-18T10:12:51.027Z,26.91
2023-05-18T10:15:21.420Z,26.98
2023-05-18T10:17:51.121Z,26.99
2023-05-18T10:20:20.072Z,26.99
2023-05-18T10:22:48.608Z,26.98
2023-05-18T10:25:22.180Z,27.07
2023-05-18T10:27:50.586Z,27.12
2023-05-18T10:30:18.414Z,27.11
2023-05-18T10:32:46.795Z,27.01
2023-05-18T10:35:14.807Z,26.93
2023-05-18T10:37:47.467Z,26.92
2023-05-18T10:40:15.823Z,27.01
2023-05-18T10:42:44.220Z,27.14
2023-05-18T10:45:12.103Z,27.31
2023-05-18T10:47:42.670Z,27.38
2023-05-18T10:50:10.923Z,27.37
2023-05-18T10:52:38.571Z,27.46
2023-05-18T10:55:07.070Z,27.59
2023-05-18T10:57:40.007Z,27.60
2023-05-18T11:00:10.311Z,27.59
2023-05-18T11:02:40.378Z,27.44
2023-05-18T11:05:11.453Z,27.30
2023-05-18T11:07:39.231Z,27.22
2023-05-18T11:10:11.191Z,27.11
2023-05-18T11:12:38.989Z,27.08
2023-05-18T11:15:07.533Z,26.98
2023-05-18T11:17:35.722Z,26.88
2023-05-18T11:20:06.463Z,26.89
2023-05-18T11:22:59.117Z,26.94
2023-05-18T11:25:26.742Z,27.09
2023-05-18T11:27:56.296Z,27.20
2023-05-18T11:30:31.196Z,27.31
2023-05-18T11:33:17.581Z,27.33
2023-05-18T11:36:04.054Z,27.28
2023-05-18T11:38:52.802Z,27.17
2023-05-18T11:41:36.180Z,27.10
2023-05-18T11:44:15.081Z,27.14
2023-05-18T11:47:02.391Z,27.18
2023-05-18T11:49:49.348Z,27.29
2023-05-18T11:52:23.683Z,27.45
2023-05-18T11:54:53.385Z,27.47
2023-05-18T11:57:24.990Z,27.57
2023-05-18T11:59:57.297Z,27.58
2023-05-18T12:02:26.957Z,27.58
2023-05-18T12:04:56.459Z,27.57
2023-05-18T12:07:28.184Z,27.62
2023-05-18T12:10:00.280Z,27.74
2023-05-18T12:12:28.065Z,27.81
2023-05-18T12:15:01.614Z,27.81
2023-05-18T12:17:41.247Z,27.48
2023-05-18T12:20:11.982Z,27.45
2023-05-18T12:22:40.544Z,27.41
2023-05-18T12:25:08.466Z,27.36
2023-05-18T12:27:44.528Z,27.35
2023-05-18T12:30:14.053Z,27.38
2023-05-18T12:32:46.604Z,27.45
2023-05-18T12:35:14.254Z,27.57
2023-05-18T12:37:45.839Z,27.68
2023-05-18T12:40:14.709Z,27.74
2023-05-18T12:43:03.100Z,27.70
2023-05-18T12:45:32.437Z,27.75
2023-05-18T12:48:07.570Z,27.79
2023-05-18T12:50:37.174Z,27.81
2023-05-18T12:53:05.052Z,27.82
2023-05-18T12:55:34.845Z,27.81
2023-05-18T12:58:07.454Z,27.88
2023-05-18T13:00:36.052Z,27.90
2023-05-18T13:03:16.865Z,28.01
2023-05-18T13:05:45.940Z,27.83
2023-05-18T13:08:22.125Z,27.74
2023-05-18T13:11:01.235Z,27.62
2023-05-18T13:13:37.302Z,27.60
2023-05-18T13:16:05.386Z,27.68
2023-05-18T13:18:33.050Z,27.71
2023-05-18T13:21:00.798Z,27.62
2023-05-18T13:23:29.038Z,27.59
2023-05-18T13:25:58.505Z,27.53
2023-05-18T13:28:26.996Z,27.46
2023-05-18T13:30:54.776Z,27.31
2023-05-18T13:33:23.496Z,27.32
2023-05-18T13:35:51.047Z,27.15
2023-05-18T13:38:18.625Z,27.11
2023-05-18T13:40:47.119Z,27.16
2023-05-18T13:43:15.018Z,27.28
2023-05-18T13:45:43.060Z,27.31
2023-05-18T13:48:11.377Z,27.36
2023-05-18T13:50:39.697Z,27.30
2023-05-18T13:53:07.754Z,27.37
2023-05-18T13:55:35.893Z,27.31
2023-05-18T13:58:03.529Z,27.31
2023-05-18T14:00:33.612Z,27.37
2023-05-18T14:03:01.852Z,27.45
2023-05-18T14:05:29.541Z,27.48
2023-05-18T14:07:57.328Z,27.45
2023-05-18T14:10:24.912Z,27.48
2023-05-18T14:12:52.629Z,27.54
2023-05-18T14:15:20.175Z,27.60
2023-05-18T14:17:48.326Z,27.54
2023-05-18T14:20:16.470Z,27.56
2023-05-18T14:22:44.228Z,27.53
2023-05-18T14:25:11.894Z,27.50
2023-05-18T14:27:39.650Z,27.48
2023-05-18T14:30:08.067Z,27.40
2023-05-18T14:32:36.031Z,27.31
2023-05-18T14:35:04.297Z,27.29
2023-05-18T14:37:33.065Z,27.20
2023-05-18T14:40:00.715Z,27.20
2023-05-18T14:42:28.432Z,27.24
2023-05-18T14:44:56.215Z,27.31
2023-05-18T14:47:23.830Z,27.37
2023-05-18T14:49:51.452Z,27.44
2023-05-18T14:52:19.437Z,27.45
2023-05-18T14:54:47.926Z,27.32
2023-05-18T14:57:15.475Z,27.21
2023-05-18T14:59:43.666Z,27.20
2023-05-18T15:02:11.336Z,27.26
2023-05-18T15:04:38.924Z,27.31
2023-05-18T15:07:06.776Z,27.35
2023-05-18T15:09:34.397Z,27.38
2023-05-18T15:12:01.992Z,27.39
2023-05-18T15:14:30.006Z,27.24
2023-05-18T15:16:58.754Z,27.20
2023-05-18T15:19:26.456Z,27.15
2023-05-18T15:21:54.315Z,27.14
2023-05-18T15:24:22.069Z,27.18
2023-05-18T15:26:49.752Z,27.17
2023-05-18T15:29:17.704Z,27.14
2023-05-18T15:31:45.685Z,26.89
2023-05-18T15:34:13.250Z,26.83
2023-05-18T15:36:41.251Z,26.79
2023-05-18T15:39:09.426Z,26.77
2023-05-18T15:41:37.065Z,26.71
2023-05-18T15:44:04.782Z,26.65
2023-05-18T15:46:35.156Z,26.59
2023-05-18T15:49:02.986Z,26.49
2023-05-18T15:51:31.352Z,26.46
2023-05-18T15:53:58.885Z,26.41
2023-05-18T15:56:26.513Z,26.38
2023-05-18T15:58:54.032Z,26.34
2023-05-18T16:01:21.606Z,26.35
2023-05-18T16:03:49.264Z,26.27
2023-05-18T16:06:17.454Z,26.17
2023-05-18T16:08:46.079Z,26.14
2023-05-18T16:11:13.712Z,26.10
2023-05-18T16:13:41.978Z,26.09
2023-05-18T16:16:10.517Z,26.03
2023-05-18T16:18:38.269Z,25.99
2023-05-18T16:21:06.018Z,25.97
2023-05-18T16:23:33.846Z,25.91
2023-05-18T16:26:05.268Z,25.87
2023-05-18T16:28:33.015Z,25.83
2023-05-18T16:31:00.926Z,25.77
2023-05-18T16:33:28.541Z,25.55
2023-05-18T16:35:58.359Z,25.50
2023-05-18T16:38:26.049Z,25.40
2023-05-18T16:40:53.925Z,25.29
2023-05-18T16:43:21.734Z,25.23
2023-05-18T16:45:49.288Z,25.17
2023-05-18T16:48:17.019Z,25.07
2023-05-18T16:50:44.604Z,24.95
2023-05-18T16:53:12.420Z,24.94
2023-05-18T16:55:39.954Z,24.96
2023-05-18T16:58:07.606Z,24.91
2023-05-18T17:00:35.219Z,24.82
2023-05-18T17:03:05.612Z,24.78
2023-05-18T17:05:34.698Z,24.69
2023-05-18T17:08:02.378Z,24.57
2023-05-18T17:10:32.061Z,24.48
2023-05-18T17:12:59.985Z,24.43
2023-05-18T17:15:27.919Z,24.36
2023-05-18T17:17:55.589Z,24.31
2023-05-18T17:20:23.159Z,24.25
2023-05-18T17:22:50.867Z,24.22
2023-05-18T17:25:18.643Z,24.18
2023-05-18T17:27:47.491Z,24.15
2023-05-18T17:30:15.593Z,24.08
2023-05-18T17:32:45.605Z,24.05
2023-05-18T17:35:14.385Z,24.03
2023-05-18T17:37:42.507Z,24.01
2023-05-18T17:40:11.020Z,23.92
2023-05-18T17:42:38.701Z,23.81
2023-05-18T17:45:06.562Z,23.75
2023-05-18T17:47:34.454Z,23.74
2023-05-18T17:50:02.092Z,23.71
2023-05-18T17:52:30.033Z,23.72
2023-05-18T17:54:57.723Z,23.67
2023-05-18T17:57:25.285Z,23.62
2023-05-18T17:59:53.109Z,23.57
2023-05-18T18:02:20.584Z,23.55
2023-05-18T18:04:48.934Z,23.54
2023-05-18T18:07:16.777Z,23.52
2023-05-18T18:09:44.318Z,23.51
2023-05-18T18:12:11.831Z,23.50
2023-05-18T18:14:39.605Z,23.48
2023-05-18T18:17:07.237Z,23.47
2023-05-18T18:19:35.049Z,23.42
2023-05-18T18:22:04.412Z,23.38
2023-05-18T18:24:32.737Z,23.31
2023-05-18T18:27:01.228Z,23.26
2023-05-18T18:29:31.180Z,23.24
2023-05-18T18:31:58.802Z,23.16
2023-05-18T18:34:26.290Z,23.16
2023-05-18T18:36:53.930Z,23.12
2023-05-18T18:39:21.706Z,23.07
2023-05-18T18:41:49.458Z,23.05
2023-05-18T18:44:17.052Z,23.04
2023-05-18T18:46:45.204Z,22.97
2023-05-18T18:49:12.721Z,22.96
2023-05-18T18:51:40.518Z,22.93
2023-05-18T18:54:08.076Z,22.86
2023-05-18T18:56:35.952Z,22.84
2023-05-18T18:59:03.465Z,22.82
2023-05-18T19:01:31.486Z,22.80
2023-05-18T19:03:59.125Z,22.75
2023-05-18T19:06:27.320Z,22.69
2023-05-18T19:08:54.984Z,22.66
2023-05-18T19:11:23.988Z,22.63
2023-05-18T19:13:51.767Z,22.60
2023-05-18T19:16:19.548Z,22.56
2023-05-18T19:18:47.423Z,22.53
2023-05-18T19:21:15.232Z,22.52
2023-05-18T19:23:42.888Z,22.46
2023-05-18T19:26:10.567Z,22.43
2023-05-18T19:28:38.341Z,22.41
2023-05-18T19:31:05.947Z,22.36
2023-05-18T19:33:33.794Z,22.34
2023-05-18T19:36:01.430Z,22.34
2023-05-18T19:38:29.096Z,22.32
2023-05-18T19:40:56.568Z,22.27
2023-05-18T19:43:24.080Z,22.24
2023-05-18T19:45:51.888Z,22.22
2023-05-18T19:48:19.716Z,22.18
2023-05-18T19:50:47.592Z,22.17
2023-05-18T19:53:15.971Z,22.14
2023-05-18T19:55:43.520Z,22.08
2023-05-18T19:58:11.008Z,21.97
2023-05-18T20:00:41.331Z,21.91
2023-05-18T20:03:09.517Z,21.89
2023-05-18T20:05:37.538Z,21.89
2023-05-18T20:08:07.510Z,21.88
2023-05-18T20:10:35.119Z,21.82
2023-05-18T20:13:02.970Z,21.78
2023-05-18T20:15:32.532Z,21.77
2023-05-18T20:18:01.951Z,21.71
2023-05-18T20:20:30.832Z,21.67
2023-05-18T20:22:59.421Z,21.64
2023-05-18T20:25:27.998Z,21.63
2023-05-18T20:28:00.851Z,21.62
2023-05-18T20:30:28.759Z,21.57
2023-05-18T20:32:58.880Z,21.58
2023-05-18T20:35:26.694Z,21.56
2023-05-18T20:37:55.977Z,21.56
2023-05-18T20:40:23.810Z,21.57
2023-05-18T20:42:54.250Z,21.57
2023-05-18T20:45:22.414Z,21.57
2023-05-18T20:47:50.918Z,21.55
2023-05-18T20:50:18.853Z,21.53
2023-05-18T20:52:46.605Z,21.52
2023-05-18T20:55:14.954Z,21.48
2023-05-18T20:57:44.773Z,21.44
2023-05-18T21:00:13.035Z,21.45
2023-05-18T21:02:48.520Z,21.42
2023-05-18T21:05:16.705Z,21.39
2023-05-18T21:07:44.404Z,21.41
2023-05-18T21:10:12.105Z,21.41
2023-05-18T21:12:40.340Z,21.40
2023-05-18T21:15:08.398Z,21.40
2023-05-18T21:17:37.784Z,21.40
2023-05-18T21:20:05.942Z,21.37
2023-05-18T21:22:33.759Z,21.35
2023-05-18T21:25:01.563Z,21.34
2023-05-18T21:27:29.434Z,21.32
2023-05-18T21:29:56.997Z,21.31
2023-05-18T21:32:24.896Z,21.29
2023-05-18T21:34:52.543Z,21.27
2023-05-18T21:37:21.284Z,21.22
2023-05-18T21:39:48.766Z,21.16
2023-05-18T21:42:16.220Z,21.13
2023-05-18T21:44:43.951Z,21.09
2023-05-18T21:47:11.456Z,21.06
2023-05-18T21:49:39.214Z,21.03
2023-05-18T21:52:06.965Z,20.99
2023-05-18T21:54:35.545Z,20.93
2023-05-18T21:57:03.051Z,20.87
2023-05-18T21:59:30.710Z,20.82
2023-05-18T22:01:58.339Z,20.79
2023-05-18T22:04:25.918Z,20.75
2023-05-18T22:06:54.417Z,20.72
2023-05-18T22:09:21.995Z,20.68
2023-05-18T22:11:49.747Z,20.65
2023-05-18T22:14:18.096Z,20.62
2023-05-18T22:16:46.583Z,20.59
2023-05-18T22:19:14.388Z,20.56
2023-05-18T22:21:42.026Z,20.53
2023-05-18T22:24:09.550Z,20.49
2023-05-18T22:26:37.357Z,20.45
2023-05-18T22:29:04.934Z,20.42
2023-05-18T22:31:32.925Z,20.41
2023-05-18T22:34:00.899Z,20.39
2023-05-18T22:36:29.557Z,20.37
2023-05-18T22:38:57.727Z,20.35
2023-05-18T22:41:25.267Z,20.30
2023-05-18T22:43:52.893Z,20.28
2023-05-18T22:46:20.477Z,20.25
2023-05-18T22:48:48.149Z,20.22
2023-05-18T22:51:15.808Z,20.20
2023-05-18T22:53:43.345Z,20.16
2023-05-18T22:56:11.161Z,20.14
2023-05-18T22:58:39.003Z,20.10
2023-05-18T23:01:06.606Z,20.08
2023-05-18T23:03:35.265Z,20.06
2023-05-18T23:06:03.278Z,20.03
2023-05-18T23:08:31.472Z,20.02
2023-05-18T23:10:59.262Z,20.00
2023-05-18T23:13:27.113Z,19.98
2023-05-18T23:15:56.288Z,19.96
2023-05-18T23:18:26.684Z,19.95
2023-05-18T23:20:58.709Z,19.94
2023-05-18T23:23:26.755Z,19.93
2023-05-18T23:25:54.775Z,19.92
2023-05-18T23:28:22.282Z,19.91
2023-05-18T23:30:49.938Z,19.89
2023-05-18T23:33:17.864Z,19.88
2023-05-18T23:35:46.667Z,19.88
2023-05-18T23:38:18.444Z,19.86
2023-05-18T23:40:46.253Z,19.83
2023-05-18T23:43:14.014Z,19.79
2023-05-18T23:45:41.878Z,19.74
2023-05-18T23:48:10.392Z,19.74
2023-05-18T23:50:38.673Z,19.75
2023-05-18T23:53:06.339Z,19.69
2023-05-18T23:55:34.469Z,19.68
2023-05-18T23:58:02.473Z,19.66
